Elton, Pennsylvania
Current Conditions -  °F | °C
As of 5:22 AM on Sunday 25 Jan 2015 (Local Time) from KJST Reporting Station
Freezing Rain Freezing Rain  
Wind Chill: -8°   Ceiling: 200
Heat Index: -1°   Visibility: 2mi
Dew Point: -2°   Wind: 21mph
Humidity: 92%   Direction: 280°W
Pressure: 29.63"   Gusts: 32mph
Location:  40.28°N, 78.8°W
Report Text: KJST 251022Z AUTO 28018G28KT 2SM -FZRA BR OVC002 M01/M02 A2963 RMK AO2 PK WND 29028/1020 P0000 I1001 T10111022
Loading
Personal Weather Stations






























Interactive Weather Map New forecast layout! Learn more

10-Day Weather Forecast

Advertisements
Track Severe Weather on mobile